createdAt,value
2022-11-22T00:00:14.762Z,3.28
2022-11-22T00:02:41.495Z,3.29
2022-11-22T00:05:08.643Z,3.22
2022-11-22T00:07:35.376Z,3.26
2022-11-22T00:10:02.014Z,3.26
2022-11-22T00:12:28.700Z,3.25
2022-11-22T00:14:57.206Z,3.25
2022-11-22T00:17:23.937Z,3.23
2022-11-22T00:19:50.651Z,3.20
2022-11-22T00:22:17.275Z,3.26
2022-11-22T00:24:46.284Z,3.21
2022-11-22T00:27:13.058Z,3.26
2022-11-22T00:29:39.693Z,3.25
2022-11-22T00:32:07.808Z,3.20
2022-11-22T00:34:34.581Z,3.17
2022-11-22T00:37:01.445Z,3.19
2022-11-22T00:39:28.322Z,-147.88
2022-11-22T00:41:55.378Z,-147.88
2022-11-22T00:44:22.183Z,-147.88
2022-11-22T00:46:48.837Z,-147.88
2022-11-22T00:49:16.847Z,-147.88
2022-11-22T00:51:43.546Z,-147.88
2022-11-22T00:54:10.291Z,3.19
2022-11-22T00:56:37.118Z,3.29
2022-11-22T00:59:03.889Z,3.25
2022-11-22T01:01:30.673Z,3.20
2022-11-22T01:03:57.446Z,3.19
2022-11-22T01:06:25.508Z,3.16
2022-11-22T01:08:52.237Z,3.17
2022-11-22T01:11:20.297Z,3.17
2022-11-22T01:13:47.325Z,-147.88
2022-11-22T01:16:15.257Z,3.34
2022-11-22T01:18:42.783Z,3.37
2022-11-22T01:21:09.839Z,3.33
2022-11-22T01:23:38.197Z,3.30
2022-11-22T01:26:07.551Z,3.34
2022-11-22T01:28:34.219Z,3.36
2022-11-22T01:31:00.977Z,3.34
2022-11-22T01:33:29.323Z,3.34
2022-11-22T01:35:56.220Z,3.36
2022-11-22T01:38:22.881Z,3.39
2022-11-22T01:40:50.950Z,3.40
2022-11-22T01:43:19.991Z,3.42
2022-11-22T01:45:50.287Z,3.46
2022-11-22T01:48:23.932Z,3.47
2022-11-22T01:50:55.187Z,3.56
2022-11-22T01:53:28.078Z,3.58
2022-11-22T01:55:58.701Z,3.62
2022-11-22T01:58:29.257Z,3.66
2022-11-22T02:00:56.306Z,3.68
2022-11-22T02:03:23.997Z,3.69
2022-11-22T02:05:52.172Z,3.72
2022-11-22T02:08:24.252Z,3.73
2022-11-22T02:10:53.502Z,3.72
2022-11-22T02:13:23.652Z,3.74
2022-11-22T02:15:52.134Z,3.75
2022-11-22T02:18:19.310Z,3.82
2022-11-22T02:20:46.233Z,3.84
2022-11-22T02:23:22.259Z,3.82
2022-11-22T02:25:55.462Z,-147.88
2022-11-22T02:28:22.408Z,-147.88
2022-11-22T02:30:49.362Z,-147.88
2022-11-22T02:33:16.027Z,-147.88
2022-11-22T02:35:42.949Z,-147.88
2022-11-22T02:38:12.957Z,-147.88
2022-11-22T02:40:44.758Z,-147.88
2022-11-22T02:43:15.662Z,-147.88
2022-11-22T02:45:42.384Z,-147.88
2022-11-22T02:48:10.962Z,-147.88
2022-11-22T02:50:38.112Z,-147.88
2022-11-22T02:53:05.578Z,-147.88
2022-11-22T02:55:32.448Z,-147.88
2022-11-22T02:57:59.545Z,-147.88
2022-11-22T03:00:27.833Z,-147.88
2022-11-22T03:02:54.613Z,-147.88
2022-11-22T03:05:21.319Z,-147.88
2022-11-22T03:07:48.058Z,-147.88
2022-11-22T03:10:14.942Z,-147.88
2022-11-22T03:12:41.658Z,-147.88
2022-11-22T03:15:08.801Z,-147.88
2022-11-22T03:17:36.955Z,-147.88
2022-11-22T03:20:18.838Z,-147.88
2022-11-22T03:22:45.540Z,-147.88
2022-11-22T03:25:12.385Z,-147.88
2022-11-22T03:27:39.061Z,-147.88
2022-11-22T03:30:09.855Z,-147.88
2022-11-22T03:32:37.938Z,-147.88
2022-11-22T03:35:05.355Z,-147.88
2022-11-22T03:37:32.091Z,-147.88
2022-11-22T03:39:58.795Z,-147.88
2022-11-22T03:42:25.519Z,-147.88
2022-11-22T03:44:52.277Z,-147.88
2022-11-22T03:47:19.039Z,-147.88
2022-11-22T03:49:47.103Z,-147.88
2022-11-22T03:52:13.825Z,-147.88
2022-11-22T03:54:40.560Z,-147.88
2022-11-22T03:57:07.325Z,-147.88
2022-11-22T03:59:34.079Z,-147.88
2022-11-22T04:02:00.863Z,-147.88
2022-11-22T04:04:27.622Z,-147.88
2022-11-22T04:06:55.798Z,-147.88
2022-11-22T04:09:22.557Z,-147.88
2022-11-22T04:11:49.255Z,-147.88
2022-11-22T04:14:34.296Z,-147.88
2022-11-22T04:17:01.123Z,-147.88
2022-11-22T04:19:28.133Z,-147.88
2022-11-22T04:21:56.488Z,-147.88
2022-11-22T04:24:42.167Z,4.33
2022-11-22T04:27:08.876Z,4.30
2022-11-22T04:29:35.469Z,4.29
2022-11-22T04:32:20.744Z,4.29
2022-11-22T04:34:47.371Z,4.25
2022-11-22T04:37:15.449Z,4.22
2022-11-22T04:39:42.103Z,-147.88
2022-11-22T04:42:27.752Z,-147.88
2022-11-22T04:47:53.315Z,4.08
2022-11-22T04:50:38.605Z,4.03
2022-11-22T04:53:06.672Z,4.07
2022-11-22T04:55:33.313Z,4.02
2022-11-22T04:58:00.574Z,3.97
2022-11-22T05:00:27.972Z,-147.88
2022-11-22T05:02:54.920Z,-147.88
2022-11-22T05:05:21.902Z,-147.88
2022-11-22T05:07:48.690Z,-147.88
2022-11-22T05:10:20.010Z,-147.88
2022-11-22T05:12:51.370Z,-147.88
2022-11-22T05:15:18.272Z,-147.88
2022-11-22T05:17:45.078Z,-147.88
2022-11-22T05:20:12.025Z,-147.88
2022-11-22T05:22:57.626Z,-147.88
2022-11-22T05:25:25.971Z,-147.88
2022-11-22T05:27:55.561Z,-147.88
2022-11-22T05:30:22.627Z,-147.88
2022-11-22T05:32:49.405Z,-147.88
2022-11-22T05:35:16.291Z,-147.88
2022-11-22T05:37:43.002Z,-147.88
2022-11-22T05:40:11.386Z,-147.88
2022-11-22T05:42:39.682Z,-147.88
2022-11-22T05:45:07.466Z,-147.88
2022-11-22T05:47:34.806Z,-147.88
2022-11-22T05:50:01.736Z,-147.88
2022-11-22T05:52:28.393Z,3.97
2022-11-22T05:54:55.140Z,3.64
2022-11-22T05:57:21.810Z,3.63
2022-11-22T05:59:49.826Z,3.68
2022-11-22T06:02:16.723Z,3.69
2022-11-22T06:04:43.451Z,3.78
2022-11-22T06:07:10.600Z,3.72
2022-11-22T06:09:37.794Z,3.66
2022-11-22T06:12:04.692Z,3.66
2022-11-22T06:14:31.381Z,3.66
2022-11-22T06:16:59.517Z,3.69
2022-11-22T06:19:26.214Z,3.70
2022-11-22T06:21:52.922Z,3.67
2022-11-22T06:24:19.647Z,3.57
2022-11-22T06:26:46.301Z,3.55
2022-11-22T06:29:13.003Z,3.53
2022-11-22T06:31:40.043Z,3.57
2022-11-22T06:34:08.449Z,3.60
2022-11-22T06:36:35.353Z,3.62
2022-11-22T06:39:04.961Z,3.62
2022-11-22T06:41:33.331Z,3.67
2022-11-22T06:44:00.113Z,3.72
2022-11-22T06:46:27.631Z,3.78
2022-11-22T06:48:54.396Z,3.84
2022-11-22T06:51:24.607Z,3.86
2022-11-22T06:53:51.963Z,3.82
2022-11-22T06:56:20.691Z,3.75
2022-11-22T06:58:48.929Z,3.73
2022-11-22T07:01:17.583Z,3.70
2022-11-22T07:03:44.904Z,3.72
2022-11-22T07:06:13.208Z,3.73
2022-11-22T07:08:42.250Z,3.70
2022-11-22T07:11:10.933Z,3.73
2022-11-22T07:13:38.153Z,3.71
2022-11-22T07:16:06.820Z,3.89
2022-11-22T07:18:33.863Z,4.45
2022-11-22T07:21:01.593Z,4.38
2022-11-22T07:23:28.762Z,4.11
2022-11-22T07:25:57.220Z,4.01
2022-11-22T07:28:24.483Z,3.94
2022-11-22T07:30:51.494Z,3.96
2022-11-22T07:33:18.939Z,3.93
2022-11-22T07:35:45.608Z,3.89
2022-11-22T07:38:12.397Z,3.94
2022-11-22T07:40:39.148Z,4.05
2022-11-22T07:43:07.183Z,4.07
2022-11-22T07:45:33.918Z,4.15
2022-11-22T07:48:01.140Z,4.09
2022-11-22T07:50:28.446Z,4.10
2022-11-22T07:52:56.298Z,4.09
2022-11-22T07:55:23.120Z,4.06
2022-11-22T07:57:49.843Z,4.07
2022-11-22T08:00:18.480Z,4.07
2022-11-22T08:02:45.351Z,4.11
2022-11-22T08:05:12.330Z,4.15
2022-11-22T08:07:39.116Z,4.17
2022-11-22T08:10:07.437Z,4.21
2022-11-22T08:12:34.205Z,4.23
2022-11-22T08:15:00.956Z,4.28
2022-11-22T08:17:29.000Z,4.47
2022-11-22T08:19:55.787Z,4.65
2022-11-22T08:22:22.683Z,4.50
2022-11-22T08:24:49.485Z,4.44
2022-11-22T08:27:16.147Z,4.41
2022-11-22T08:29:43.530Z,4.42
2022-11-22T08:32:10.270Z,4.44
2022-11-22T08:34:39.811Z,4.43
2022-11-22T08:37:10.685Z,4.41
2022-11-22T08:39:37.417Z,4.48
2022-11-22T08:42:04.178Z,4.48
2022-11-22T08:44:30.868Z,4.50
2022-11-22T08:46:57.597Z,4.56
2022-11-22T08:49:24.894Z,4.54
2022-11-22T08:51:53.090Z,4.51
2022-11-22T08:54:19.889Z,4.58
2022-11-22T08:56:46.621Z,4.56
2022-11-22T08:59:13.456Z,4.58
2022-11-22T09:01:40.396Z,4.64
2022-11-22T09:04:07.042Z,4.69
2022-11-22T09:09:36.997Z,4.72
2022-11-22T09:12:04.921Z,4.76
2022-11-22T09:14:31.571Z,4.76
2022-11-22T09:16:58.407Z,4.85
2022-11-22T09:19:25.259Z,4.83
2022-11-22T09:21:51.977Z,4.86
2022-11-22T09:24:18.658Z,4.91
2022-11-22T09:26:46.785Z,-147.88
2022-11-22T09:29:14.301Z,-147.88
2022-11-22T09:31:41.146Z,-147.88
2022-11-22T09:34:07.898Z,-147.88
2022-11-22T09:36:34.719Z,-147.88
2022-11-22T09:39:01.632Z,-147.88
2022-11-22T09:41:55.858Z,-147.88
2022-11-22T09:44:32.114Z,-147.88
2022-11-22T09:47:07.196Z,-147.88
2022-11-22T09:49:43.247Z,5.10
2022-11-22T09:52:19.852Z,5.15
2022-11-22T09:54:53.423Z,5.08
2022-11-22T09:57:26.199Z,5.08
2022-11-22T10:00:06.243Z,5.10
2022-11-22T10:02:58.813Z,5.13
2022-11-22T10:05:28.383Z,5.19
2022-11-22T10:08:01.648Z,5.38
2022-11-22T10:10:38.802Z,5.40
2022-11-22T10:13:14.860Z,5.21
2022-11-22T10:15:49.560Z,5.64
2022-11-22T10:18:24.004Z,5.68
2022-11-22T10:20:51.245Z,5.62
2022-11-22T10:23:20.873Z,5.53
2022-11-22T10:25:56.002Z,5.37
2022-11-22T10:28:32.739Z,5.25
2022-11-22T10:31:07.291Z,5.12
2022-11-22T10:33:44.024Z,5.08
2022-11-22T10:36:28.557Z,5.04
2022-11-22T10:39:19.486Z,5.09
2022-11-22T10:42:02.415Z,5.10
2022-11-22T10:44:41.639Z,4.98
2022-11-22T10:47:16.977Z,4.93
2022-11-22T10:49:57.676Z,4.93
2022-11-22T10:52:35.918Z,4.94
2022-11-22T10:55:19.097Z,4.91
2022-11-22T10:57:55.602Z,4.98
2022-11-22T11:00:25.840Z,4.96
2022-11-22T11:03:04.082Z,5.00
2022-11-22T11:05:35.336Z,4.92
2022-11-22T11:08:21.701Z,4.92
2022-11-22T11:10:49.555Z,4.92
2022-11-22T11:13:23.461Z,4.91
2022-11-22T11:15:56.648Z,5.07
2022-11-22T11:18:30.913Z,5.41
2022-11-22T11:20:59.259Z,5.27
2022-11-22T11:23:26.137Z,5.34
2022-11-22T11:25:53.017Z,5.38
2022-11-22T11:28:22.054Z,5.28
2022-11-22T11:30:52.233Z,5.21
2022-11-22T11:33:26.044Z,5.17
2022-11-22T11:35:55.761Z,5.18
2022-11-22T11:38:31.810Z,5.17
2022-11-22T11:40:59.056Z,5.18
2022-11-22T11:43:26.258Z,5.04
2022-11-22T11:45:53.269Z,5.08
2022-11-22T11:48:29.707Z,5.09
2022-11-22T11:51:08.316Z,5.05
2022-11-22T11:53:35.985Z,5.03
2022-11-22T11:56:19.853Z,5.08
2022-11-22T11:58:51.961Z,5.15
2022-11-22T12:01:20.352Z,5.13
2022-11-22T12:03:56.446Z,5.11
2022-11-22T12:06:28.407Z,5.09
2022-11-22T12:08:55.427Z,5.09
2022-11-22T12:11:30.929Z,5.08
2022-11-22T12:16:52.402Z,5.08
2022-11-22T12:19:27.365Z,5.20
2022-11-22T12:22:01.560Z,5.24
2022-11-22T12:24:52.308Z,5.23
2022-11-22T12:27:22.058Z,5.23
2022-11-22T12:29:49.061Z,5.25
2022-11-22T12:32:23.699Z,5.22
2022-11-22T12:34:57.558Z,5.17
2022-11-22T12:37:28.904Z,5.10
2022-11-22T12:39:58.993Z,5.07
2022-11-22T12:42:32.509Z,5.14
2022-11-22T12:45:04.789Z,5.07
2022-11-22T12:47:37.618Z,5.04
2022-11-22T12:50:14.033Z,4.96
2022-11-22T12:52:45.119Z,4.93
2022-11-22T12:55:17.868Z,4.93
2022-11-22T12:57:53.122Z,4.99
2022-11-22T13:00:24.557Z,5.18
2022-11-22T13:03:01.242Z,5.12
2022-11-22T13:05:33.907Z,5.10
2022-11-22T13:08:09.344Z,5.11
2022-11-22T13:10:40.935Z,5.09
2022-11-22T13:13:17.287Z,5.11
2022-11-22T13:15:45.691Z,5.12
2022-11-22T13:18:16.118Z,5.13
2022-11-22T13:20:53.026Z,5.12
2022-11-22T13:23:35.265Z,5.07
2022-11-22T13:26:13.269Z,5.08
2022-11-22T13:28:43.805Z,5.08
2022-11-22T13:31:17.705Z,5.07
2022-11-22T13:33:52.750Z,5.04
2022-11-22T13:36:36.128Z,4.91
2022-11-22T13:39:06.572Z,4.93
2022-11-22T13:41:39.806Z,4.91
2022-11-22T13:44:25.529Z,4.92
2022-11-22T13:46:55.779Z,4.86
2022-11-22T13:49:48.271Z,4.89
2022-11-22T13:52:50.593Z,4.86
2022-11-22T13:55:40.208Z,4.89
2022-11-22T13:58:54.973Z,4.88
2022-11-22T14:01:55.974Z,4.83
2022-11-22T14:04:39.863Z,4.83
2022-11-22T14:07:27.578Z,4.84
2022-11-22T14:09:57.913Z,4.81
2022-11-22T14:12:54.189Z,4.79
2022-11-22T14:15:38.050Z,4.82
2022-11-22T14:18:19.695Z,4.80
2022-11-22T14:21:03.527Z,4.80
2022-11-22T14:23:41.459Z,4.73
2022-11-22T14:26:21.187Z,4.71
2022-11-22T14:29:41.995Z,4.74
2022-11-22T14:32:15.304Z,4.75
2022-11-22T14:35:17.851Z,4.64
2022-11-22T14:37:47.281Z,4.67
2022-11-22T14:40:32.826Z,4.70
2022-11-22T14:43:04.445Z,4.68
2022-11-22T14:45:42.673Z,4.67
2022-11-22T14:48:21.037Z,4.67
2022-11-22T14:50:54.884Z,4.76
2022-11-22T14:53:30.408Z,4.80
2022-11-22T14:56:04.791Z,4.71
2022-11-22T14:58:39.191Z,4.68
2022-11-22T15:01:28.087Z,4.64
2022-11-22T15:09:10.193Z,4.61
2022-11-22T15:09:10.194Z,4.62
2022-11-22T15:10:22.844Z,4.62
2022-11-22T15:13:14.663Z,4.63
2022-11-22T15:57:31.227Z,4.62
2022-11-22T15:59:58.471Z,4.66
2022-11-22T16:02:32.651Z,4.68
2022-11-22T16:06:09.510Z,4.66
2022-11-22T16:07:52.608Z,4.65
2022-11-22T16:10:22.410Z,4.60
2022-11-22T16:12:50.424Z,4.55
2022-11-22T16:15:26.787Z,4.56
2022-11-22T16:17:59.646Z,4.52
2022-11-22T16:20:32.417Z,4.54
2022-11-22T16:23:25.509Z,4.52
2022-11-22T16:25:58.512Z,4.51
2022-11-22T16:28:31.006Z,4.49
2022-11-22T16:30:59.976Z,4.74
2022-11-22T16:33:27.307Z,4.77
2022-11-22T16:35:55.536Z,4.62
2022-11-22T16:38:25.747Z,4.55
2022-11-22T16:40:56.732Z,4.53
2022-11-22T16:43:26.439Z,4.50
2022-11-22T16:45:55.397Z,4.52
2022-11-22T16:48:32.904Z,4.50
2022-11-22T16:51:04.845Z,4.52
2022-11-22T16:53:43.194Z,4.51
2022-11-22T16:56:18.108Z,4.52
2022-11-22T16:58:46.294Z,4.47
2022-11-22T17:01:16.100Z,4.52
2022-11-22T17:03:44.326Z,4.49
2022-11-22T17:06:16.234Z,4.49
2022-11-22T17:08:45.045Z,4.45
2022-11-22T17:11:15.250Z,4.54
2022-11-22T17:13:42.296Z,4.52
2022-11-22T17:16:10.358Z,4.53
2022-11-22T17:18:37.393Z,4.55
2022-11-22T17:21:05.770Z,4.53
2022-11-22T17:23:37.373Z,4.55
2022-11-22T17:26:07.368Z,4.57
2022-11-22T17:28:36.660Z,4.57
2022-11-22T17:31:10.128Z,4.54
2022-11-22T17:33:39.632Z,4.53
2022-11-22T17:36:18.250Z,4.54
2022-11-22T17:38:46.128Z,4.54
2022-11-22T17:41:14.257Z,4.55
2022-11-22T17:43:40.894Z,4.54
2022-11-22T17:46:07.904Z,4.55
2022-11-22T17:48:34.998Z,4.66
2022-11-22T17:51:05.507Z,4.73
2022-11-22T17:53:32.380Z,4.67
2022-11-22T17:56:14.461Z,4.64
2022-11-22T17:58:43.090Z,4.64
2022-11-22T18:01:12.224Z,4.64
2022-11-22T18:03:40.094Z,4.61
2022-11-22T18:06:08.328Z,4.61
2022-11-22T18:08:35.339Z,4.60
2022-11-22T18:11:03.680Z,4.60
2022-11-22T18:13:32.549Z,4.61
2022-11-22T18:16:03.662Z,4.60
2022-11-22T18:18:55.840Z,4.62
2022-11-22T18:21:17.966Z,4.66
2022-11-22T18:23:45.308Z,4.69
2022-11-22T18:29:32.509Z,4.73
2022-11-22T18:31:52.345Z,4.72
2022-11-22T18:34:19.697Z,4.70
2022-11-22T18:36:55.340Z,4.72
2022-11-22T18:39:23.384Z,4.78
2022-11-22T18:41:50.774Z,4.79
2022-11-22T18:44:17.722Z,4.94
2022-11-22T18:46:44.502Z,5.03
2022-11-22T18:49:12.632Z,4.96
2022-11-22T18:51:39.611Z,4.86
2022-11-22T18:54:06.743Z,4.88
2022-11-22T18:56:38.925Z,4.85
2022-11-22T18:59:08.286Z,4.81
2022-11-22T19:01:35.662Z,4.79
2022-11-22T19:04:03.321Z,4.76
2022-11-22T19:06:32.486Z,4.80
2022-11-22T19:08:59.445Z,4.78
2022-11-22T19:11:29.654Z,4.79
2022-11-22T19:13:57.905Z,4.77
2022-11-22T19:16:29.314Z,4.77
2022-11-22T19:18:56.950Z,4.77
2022-11-22T19:21:27.673Z,4.75
2022-11-22T19:23:57.358Z,4.75
2022-11-22T19:26:26.149Z,4.76
2022-11-22T19:28:58.189Z,4.80
2022-11-22T19:31:28.322Z,4.84
2022-11-22T19:33:58.354Z,4.89
2022-11-22T19:36:32.736Z,4.91
2022-11-22T19:39:06.071Z,4.88
2022-11-22T19:41:33.096Z,4.90
2022-11-22T19:44:00.304Z,4.93
2022-11-22T19:46:27.481Z,4.97
2022-11-22T19:48:55.709Z,5.00
2022-11-22T19:51:23.393Z,5.00
2022-11-22T19:53:53.492Z,4.99
2022-11-22T19:56:21.745Z,4.97
2022-11-22T19:58:51.250Z,4.94
2022-11-22T20:01:18.758Z,5.00
2022-11-22T20:03:45.945Z,4.97
2022-11-22T20:06:14.166Z,4.97
2022-11-22T20:08:41.388Z,5.00
2022-11-22T20:11:10.240Z,5.03
2022-11-22T20:13:40.695Z,5.04
2022-11-22T20:16:08.704Z,5.02
2022-11-22T20:18:35.415Z,4.99
2022-11-22T20:21:03.229Z,4.99
2022-11-22T20:23:30.266Z,5.02
2022-11-22T20:26:01.370Z,5.02
2022-11-22T20:28:30.812Z,4.98
2022-11-22T20:31:12.680Z,4.93
2022-11-22T20:33:45.295Z,4.95
2022-11-22T20:36:16.188Z,4.98
2022-11-22T20:38:44.229Z,4.93
2022-11-22T20:41:12.824Z,4.99
2022-11-22T20:43:40.295Z,4.89
2022-11-22T20:46:10.230Z,4.88
2022-11-22T20:48:38.399Z,4.86
2022-11-22T20:51:07.608Z,4.88
2022-11-22T20:53:35.378Z,4.93
2022-11-22T20:56:02.686Z,4.90
2022-11-22T20:58:29.646Z,4.88
2022-11-22T21:00:57.110Z,4.84
2022-11-22T21:03:25.798Z,4.84
2022-11-22T21:05:54.290Z,4.81
2022-11-22T21:08:21.392Z,4.87
2022-11-22T21:10:48.579Z,4.86
2022-11-22T21:13:15.389Z,4.91
2022-11-22T21:15:42.285Z,5.03
2022-11-22T21:18:24.837Z,5.08
2022-11-22T21:20:53.502Z,5.05
2022-11-22T21:23:20.203Z,5.11
2022-11-22T21:25:47.225Z,5.10
2022-11-22T21:28:13.968Z,5.05
2022-11-22T21:30:40.690Z,5.07
2022-11-22T21:33:07.460Z,5.05
2022-11-22T21:35:34.305Z,5.02
2022-11-22T21:38:02.389Z,5.01
2022-11-22T21:40:29.025Z,5.01
2022-11-22T21:42:55.693Z,4.90
2022-11-22T21:45:22.409Z,4.90
2022-11-22T21:47:49.767Z,4.87
2022-11-22T21:50:17.300Z,4.86
2022-11-22T21:52:44.008Z,4.79
2022-11-22T21:55:12.128Z,4.75
2022-11-22T21:57:38.902Z,4.82
2022-11-22T22:00:06.887Z,4.86
2022-11-22T22:02:33.699Z,4.73
2022-11-22T22:05:00.481Z,4.86
2022-11-22T22:07:51.438Z,4.80
2022-11-22T22:10:16.439Z,4.75
2022-11-22T22:12:43.320Z,4.69
2022-11-22T22:15:14.645Z,4.62
2022-11-22T22:17:41.275Z,4.62
2022-11-22T22:20:08.700Z,4.58
2022-11-22T22:22:36.756Z,4.61
2022-11-22T22:25:05.183Z,4.55
2022-11-22T22:27:33.786Z,4.61
2022-11-22T22:30:00.898Z,4.58
2022-11-22T22:32:27.913Z,4.64
2022-11-22T22:34:54.833Z,4.59
2022-11-22T22:37:21.872Z,4.50
2022-11-22T22:39:49.896Z,4.44
2022-11-22T22:42:18.509Z,4.45
2022-11-22T22:44:46.548Z,4.45
2022-11-22T22:47:13.459Z,4.51
2022-11-22T22:49:40.429Z,4.52
2022-11-22T22:52:07.134Z,4.62
2022-11-22T22:54:33.950Z,4.80
2022-11-22T22:57:05.511Z,4.62
2022-11-22T22:59:32.537Z,4.53
2022-11-22T23:02:00.778Z,4.40
2022-11-22T23:04:27.556Z,4.29
2022-11-22T23:06:54.265Z,4.23
2022-11-22T23:09:22.291Z,4.19
2022-11-22T23:12:07.447Z,4.22
2022-11-22T23:14:34.151Z,4.19
2022-11-22T23:17:02.606Z,4.18
2022-11-22T23:19:29.359Z,4.16
2022-11-22T23:21:56.477Z,4.16
2022-11-22T23:24:23.186Z,4.12
2022-11-22T23:26:49.849Z,4.13
2022-11-22T23:29:19.659Z,4.08
2022-11-22T23:31:46.349Z,4.08
2022-11-22T23:34:14.592Z,4.10
2022-11-22T23:36:41.488Z,4.16
2022-11-22T23:39:08.968Z,4.10
2022-11-22T23:41:35.686Z,4.10
2022-11-22T23:44:02.581Z,4.22
2022-11-22T23:46:29.382Z,4.34
2022-11-22T23:48:57.715Z,4.40
2022-11-22T23:51:27.503Z,4.32
2022-11-22T23:53:55.037Z,4.23
2022-11-22T23:56:22.545Z,4.18
2022-11-22T23:58:49.719Z,4.17
